createdAt,value
2022-08-16T00:00:06.236Z,56.32
2022-08-16T00:05:48.568Z,56.28
2022-08-16T00:11:15.187Z,56.42
2022-08-16T00:17:05.838Z,55.96
2022-08-16T00:22:20.732Z,56.35
2022-08-16T00:27:47.150Z,57.30
2022-08-16T00:33:09.391Z,58.14
2022-08-16T00:38:40.876Z,57.18
2022-08-16T00:44:11.133Z,57.40
2022-08-16T00:49:44.430Z,57.49
2022-08-16T00:55:08.508Z,58.07
2022-08-16T01:00:32.047Z,58.59
2022-08-16T01:05:54.054Z,58.57
2022-08-16T01:11:16.855Z,59.08
2022-08-16T01:16:41.949Z,59.72
2022-08-16T01:22:47.645Z,60.00
2022-08-16T01:28:01.911Z,60.42
2022-08-16T01:33:24.740Z,59.81
2022-08-16T01:38:57.120Z,60.71
2022-08-16T01:44:19.548Z,61.19
2022-08-16T01:50:40.642Z,61.34
2022-08-16T01:55:24.681Z,62.10
2022-08-16T02:00:46.633Z,61.94
2022-08-16T02:06:08.888Z,62.24
2022-08-16T02:11:48.412Z,62.33
2022-08-16T02:17:13.397Z,62.50
2022-08-16T02:22:36.838Z,62.76
2022-08-16T02:27:59.219Z,62.57
2022-08-16T02:33:43.785Z,62.54
2022-08-16T02:39:08.309Z,62.12
2022-08-16T02:44:31.281Z,62.87
2022-08-16T02:50:03.196Z,63.15
2022-08-16T02:55:40.826Z,63.48
2022-08-16T03:01:03.492Z,63.87
2022-08-16T03:06:42.054Z,63.99
2022-08-16T03:12:05.592Z,64.07
2022-08-16T03:17:32.174Z,63.76
2022-08-16T03:22:54.293Z,64.18
2022-08-16T03:28:18.799Z,65.06
2022-08-16T03:33:40.598Z,64.74
2022-08-16T03:39:03.439Z,65.15
2022-08-16T03:44:44.293Z,65.08
2022-08-16T03:50:25.571Z,65.07
2022-08-16T03:55:48.190Z,65.55
2022-08-16T04:01:14.487Z,66.75
2022-08-16T04:06:37.920Z,66.96
2022-08-16T04:11:59.892Z,67.70
2022-08-16T04:17:21.667Z,67.13
2022-08-16T04:22:48.845Z,66.48
2022-08-16T04:28:51.845Z,67.05
2022-08-16T04:33:59.222Z,65.94
2022-08-16T04:39:24.054Z,65.91
2022-08-16T04:44:53.529Z,66.03
2022-08-16T04:50:23.489Z,67.17
2022-08-16T04:55:53.102Z,66.55
2022-08-16T05:01:15.561Z,66.11
2022-08-16T05:06:42.350Z,66.01
2022-08-16T05:12:07.047Z,65.75
2022-08-16T05:17:32.944Z,65.48
2022-08-16T05:22:54.780Z,65.05
2022-08-16T05:28:18.600Z,64.32
2022-08-16T05:33:42.110Z,63.59
2022-08-16T05:39:07.793Z,63.26
2022-08-16T05:44:30.365Z,62.48
2022-08-16T05:49:53.321Z,62.17
2022-08-16T05:55:15.092Z,62.01
2022-08-16T06:00:37.137Z,61.66
2022-08-16T06:06:00.828Z,61.31
2022-08-16T06:11:25.530Z,61.47
2022-08-16T06:16:50.928Z,62.75
2022-08-16T06:22:37.388Z,64.42
2022-08-16T06:27:57.449Z,64.35
2022-08-16T06:33:22.559Z,64.04
2022-08-16T06:38:55.365Z,64.13
2022-08-16T06:44:20.845Z,63.21
2022-08-16T06:49:43.415Z,62.59
2022-08-16T06:55:16.715Z,62.65
2022-08-16T07:00:38.934Z,62.54
2022-08-16T07:06:05.776Z,62.39
2022-08-16T07:11:48.181Z,61.30
2022-08-16T07:17:11.490Z,60.94
2022-08-16T07:22:52.456Z,60.71
2022-08-16T07:28:20.983Z,60.37
2022-08-16T07:33:52.842Z,60.31
2022-08-16T07:39:16.357Z,58.92
2022-08-16T07:44:49.196Z,56.02
2022-08-16T07:50:56.628Z,57.21
2022-08-16T07:55:56.717Z,57.42
2022-08-16T08:01:18.624Z,58.52
2022-08-16T08:06:46.889Z,57.80
2022-08-16T08:12:32.224Z,57.96
2022-08-16T08:17:54.924Z,57.79
2022-08-16T08:23:17.825Z,57.59
2022-08-16T08:28:39.800Z,57.45
2022-08-16T08:34:04.876Z,56.93
2022-08-16T08:39:27.000Z,57.32
2022-08-16T08:44:48.776Z,56.97
2022-08-16T08:50:11.035Z,56.83
2022-08-16T08:55:33.810Z,56.85
2022-08-16T09:01:01.331Z,56.56
2022-08-16T09:06:23.435Z,56.72
2022-08-16T09:11:52.440Z,56.35
2022-08-16T09:17:38.247Z,55.54
2022-08-16T09:22:59.318Z,55.08
2022-08-16T09:28:38.098Z,54.83
2022-08-16T09:34:03.963Z,54.55
2022-08-16T09:39:28.725Z,54.84
2022-08-16T09:45:12.351Z,54.38
2022-08-16T09:50:43.664Z,54.11
2022-08-16T09:56:16.443Z,53.53
2022-08-16T10:01:45.853Z,53.07
2022-08-16T10:07:14.999Z,52.54
2022-08-16T10:12:56.986Z,52.64
2022-08-16T10:19:02.279Z,52.65
2022-08-16T10:24:01.191Z,52.98
2022-08-16T10:29:23.641Z,52.97
2022-08-16T10:34:45.384Z,53.00
2022-08-16T10:40:28.445Z,52.73
2022-08-16T10:46:00.197Z,52.17
2022-08-16T10:51:33.362Z,51.53
2022-08-16T10:56:57.115Z,50.77
2022-08-16T11:02:58.055Z,50.30
2022-08-16T11:08:05.543Z,49.52
2022-08-16T11:19:13.127Z,48.96
2022-08-16T11:24:42.169Z,48.77
2022-08-16T11:30:09.045Z,47.91
2022-08-16T11:41:16.704Z,47.94
2022-08-16T11:46:44.320Z,47.90
2022-08-16T11:52:08.482Z,47.11
2022-08-16T11:57:30.275Z,47.19
2022-08-16T12:02:54.004Z,46.09
2022-08-16T12:08:16.236Z,45.86
2022-08-16T12:13:42.820Z,45.23
2022-08-16T12:19:10.638Z,44.81
2022-08-16T12:24:35.341Z,44.23
2022-08-16T12:29:58.654Z,44.66
2022-08-16T12:35:21.863Z,43.29
2022-08-16T12:40:49.089Z,43.69
2022-08-16T12:46:14.939Z,43.48
2022-08-16T12:51:58.322Z,43.14
2022-08-16T12:57:25.430Z,43.16
2022-08-16T13:03:01.051Z,43.18
2022-08-16T13:08:27.549Z,42.75
2022-08-16T13:13:54.653Z,42.37
2022-08-16T13:19:16.785Z,42.57
2022-08-16T13:24:38.590Z,42.27
2022-08-16T13:30:00.338Z,40.48
2022-08-16T13:35:23.931Z,40.72
2022-08-16T13:40:48.628Z,40.36
2022-08-16T13:46:12.237Z,40.21
2022-08-16T13:51:34.107Z,39.46
2022-08-16T13:56:56.764Z,39.45
2022-08-16T14:02:18.543Z,39.55
2022-08-16T14:07:42.385Z,39.61
2022-08-16T14:13:04.303Z,39.36
2022-08-16T14:18:27.943Z,38.96
2022-08-16T14:23:52.888Z,38.48
2022-08-16T14:29:14.637Z,38.87
2022-08-16T14:34:36.968Z,38.03
2022-08-16T14:40:00.251Z,38.44
2022-08-16T14:45:27.592Z,38.54
2022-08-16T14:50:49.386Z,38.32
2022-08-16T14:56:17.562Z,37.82
2022-08-16T15:01:58.670Z,38.09
2022-08-16T15:07:22.701Z,38.29
2022-08-16T15:12:45.627Z,38.61
2022-08-16T15:18:10.065Z,37.90
2022-08-16T15:23:34.329Z,38.23
2022-08-16T15:28:56.102Z,38.10
2022-08-16T15:34:21.841Z,38.19
2022-08-16T15:39:48.426Z,38.21
2022-08-16T15:45:35.868Z,37.83
2022-08-16T15:51:04.249Z,37.86
2022-08-16T15:56:27.769Z,37.87
2022-08-16T16:01:51.377Z,38.22
2022-08-16T16:07:13.479Z,38.38
2022-08-16T16:12:54.228Z,38.41
2022-08-16T16:18:17.929Z,38.22
2022-08-16T16:23:55.123Z,38.41
2022-08-16T16:29:20.720Z,38.48
2022-08-16T16:34:43.481Z,38.60
2022-08-16T16:40:10.746Z,38.15
2022-08-16T16:45:36.500Z,37.98
2022-08-16T16:50:58.962Z,38.24
2022-08-16T16:56:27.516Z,38.27
2022-08-16T17:01:57.406Z,38.43
2022-08-16T17:07:24.323Z,38.55
2022-08-16T17:12:47.724Z,38.40
2022-08-16T17:19:17.055Z,38.29
2022-08-16T17:23:59.254Z,38.56
2022-08-16T17:29:33.378Z,38.75
2022-08-16T17:34:55.152Z,38.75
2022-08-16T17:40:46.023Z,39.01
2022-08-16T17:46:51.710Z,39.04
2022-08-16T17:51:52.041Z,38.70
2022-08-16T17:57:13.818Z,39.24
2022-08-16T18:02:43.677Z,39.17
2022-08-16T18:08:06.510Z,39.49
2022-08-16T18:13:32.383Z,39.35
2022-08-16T18:18:54.174Z,40.03
2022-08-16T18:24:16.234Z,39.94
2022-08-16T18:29:38.242Z,40.22
2022-08-16T18:35:00.032Z,40.95
2022-08-16T18:40:22.780Z,41.44
2022-08-16T18:45:47.741Z,41.95
2022-08-16T18:51:16.570Z,42.27
2022-08-16T18:56:56.796Z,42.53
2022-08-16T19:02:57.170Z,43.01
2022-08-16T19:08:10.466Z,43.43
2022-08-16T19:13:33.367Z,43.73
2022-08-16T19:18:55.250Z,44.01
2022-08-16T19:24:18.135Z,44.08
2022-08-16T19:29:40.207Z,44.64
2022-08-16T19:35:01.952Z,44.80
2022-08-16T19:40:38.180Z,44.89
2022-08-16T19:46:00.229Z,45.31
2022-08-16T19:51:22.437Z,45.28
2022-08-16T19:56:44.301Z,45.37
2022-08-16T20:02:25.484Z,45.76
2022-08-16T20:08:04.199Z,46.44
2022-08-16T20:13:26.464Z,46.63
2022-08-16T20:18:48.185Z,46.72
2022-08-16T20:24:32.668Z,47.44
2022-08-16T20:29:51.855Z,47.37
2022-08-16T20:35:17.160Z,47.63
2022-08-16T20:40:39.898Z,48.03
2022-08-16T20:46:01.642Z,48.39
2022-08-16T20:51:24.844Z,48.58
2022-08-16T20:56:46.714Z,48.64
2022-08-16T21:02:11.809Z,48.81
2022-08-16T21:07:33.568Z,48.84
2022-08-16T21:12:59.284Z,48.86
2022-08-16T21:18:21.016Z,49.46
2022-08-16T21:23:42.844Z,49.78
2022-08-16T21:29:04.631Z,49.91
2022-08-16T21:34:29.441Z,49.70
2022-08-16T21:39:51.299Z,50.26
2022-08-16T21:45:13.923Z,51.06
2022-08-16T21:50:38.004Z,51.72
2022-08-16T21:56:00.473Z,52.54
2022-08-16T22:01:23.304Z,52.28
2022-08-16T22:06:45.542Z,51.62
2022-08-16T22:12:08.310Z,50.94
2022-08-16T22:17:30.049Z,50.96
2022-08-16T22:22:52.433Z,51.13
2022-08-16T22:28:14.698Z,50.51
2022-08-16T22:33:36.519Z,51.05
2022-08-16T22:39:00.350Z,51.67
2022-08-16T22:44:22.297Z,51.78
2022-08-16T22:49:44.064Z,52.10
2022-08-16T22:55:06.336Z,52.66
2022-08-16T23:00:31.035Z,52.43
2022-08-16T23:05:56.187Z,53.02
2022-08-16T23:11:22.413Z,52.92
2022-08-16T23:16:46.985Z,53.13
2022-08-16T23:22:08.729Z,53.25
2022-08-16T23:27:30.477Z,53.04
2022-08-16T23:32:55.191Z,53.23
2022-08-16T23:38:37.894Z,52.71
2022-08-16T23:44:01.781Z,53.72
2022-08-16T23:50:00.088Z,53.74
2022-08-16T23:55:24.447Z,54.59
